createdAt,value
2023-04-18T00:00:10.667Z,9.90
2023-04-18T00:10:36.098Z,8.90
2023-04-18T00:15:38.940Z,10.70
2023-04-18T00:20:41.821Z,10.00
2023-04-18T00:25:44.601Z,8.00
2023-04-18T00:30:47.418Z,9.20
2023-04-18T00:35:50.287Z,8.90
2023-04-18T00:40:53.061Z,9.20
2023-04-18T00:45:57.263Z,10.10
2023-04-18T00:51:00.740Z,10.90
2023-04-18T00:56:04.954Z,11.60
2023-04-18T01:01:08.025Z,10.60
2023-04-18T01:06:10.894Z,9.70
2023-04-18T01:11:13.663Z,9.90
2023-04-18T01:16:16.465Z,9.90
2023-04-18T01:21:20.470Z,10.20
2023-04-18T01:26:23.334Z,11.50
2023-04-18T01:31:26.235Z,12.00
2023-04-18T01:36:29.154Z,12.20
2023-04-18T01:41:33.094Z,11.00
2023-04-18T01:46:36.740Z,10.40
2023-04-18T01:51:39.573Z,9.70
2023-04-18T01:56:42.445Z,9.90
2023-04-18T02:01:45.270Z,10.90
2023-04-18T02:06:48.142Z,8.80
2023-04-18T02:11:51.071Z,10.00
2023-04-18T02:16:53.891Z,9.50
2023-04-18T02:21:56.742Z,10.40
2023-04-18T02:26:59.495Z,7.10
2023-04-18T02:32:02.342Z,9.50
2023-04-18T02:37:05.297Z,9.50
2023-04-18T02:42:08.075Z,9.20
2023-04-18T02:47:10.880Z,9.10
2023-04-18T02:52:14.857Z,8.60
2023-04-18T02:57:17.733Z,9.40
2023-04-18T03:02:21.147Z,9.60
2023-04-18T03:07:24.128Z,8.10
2023-04-18T03:12:26.928Z,9.20
2023-04-18T03:17:29.761Z,10.20
2023-04-18T03:22:32.556Z,9.60
2023-04-18T03:27:35.734Z,7.30
2023-04-18T03:32:38.746Z,8.20
2023-04-18T03:37:41.514Z,8.30
2023-04-18T03:42:44.400Z,8.80
2023-04-18T03:47:47.255Z,8.30
2023-04-18T03:52:50.022Z,8.90
2023-04-18T03:57:52.815Z,8.50
2023-04-18T04:02:55.836Z,8.70
2023-04-18T04:07:58.865Z,7.90
2023-04-18T04:13:01.663Z,7.70
2023-04-18T04:18:06.289Z,6.60
2023-04-18T04:23:10.143Z,8.90
2023-04-18T04:28:13.779Z,9.70
2023-04-18T04:33:20.819Z,8.20
2023-04-18T04:38:23.593Z,8.30
2023-04-18T04:43:28.903Z,9.20
2023-04-18T04:48:31.708Z,8.00
2023-04-18T04:53:34.635Z,10.10
2023-04-18T04:58:37.449Z,9.60
2023-04-18T05:03:40.526Z,9.20
2023-04-18T05:08:43.531Z,9.70
2023-04-18T05:13:46.325Z,9.80
2023-04-18T05:18:49.052Z,10.30
2023-04-18T05:23:51.930Z,10.60
2023-04-18T05:28:55.020Z,10.00
2023-04-18T05:33:57.750Z,9.40
2023-04-18T05:39:02.902Z,9.00
2023-04-18T05:44:07.086Z,10.20
2023-04-18T05:49:10.720Z,10.30
2023-04-18T05:54:13.801Z,8.60
2023-04-18T05:59:17.550Z,10.90
2023-04-18T06:04:21.477Z,9.80
2023-04-18T06:09:24.509Z,10.20
2023-04-18T06:14:28.432Z,12.80
2023-04-18T06:19:36.002Z,9.70
2023-04-18T06:24:42.523Z,8.90
2023-04-18T06:34:49.719Z,9.70
2023-04-18T06:39:56.146Z,8.70
2023-04-18T06:44:59.805Z,7.20
2023-04-18T06:50:06.127Z,8.70
2023-04-18T06:55:10.002Z,8.40
2023-04-18T07:00:13.739Z,7.50
2023-04-18T07:05:17.437Z,7.00
2023-04-18T07:10:21.347Z,7.40
2023-04-18T07:15:31.153Z,7.30
2023-04-18T07:20:40.467Z,7.10
2023-04-18T07:25:43.373Z,7.20
2023-04-18T07:30:46.217Z,6.90
2023-04-18T07:35:50.705Z,6.30
2023-04-18T07:41:02.712Z,6.10
2023-04-18T07:46:07.049Z,6.30
2023-04-18T07:51:11.605Z,6.10
2023-04-18T07:56:15.565Z,6.00
2023-04-18T08:01:20.970Z,5.50
2023-04-18T08:06:27.220Z,5.30
2023-04-18T08:11:30.454Z,5.00
2023-04-18T08:16:33.432Z,4.70
2023-04-18T08:21:37.353Z,5.50
2023-04-18T08:26:40.520Z,4.90
2023-04-18T08:31:43.456Z,5.20
2023-04-18T08:36:46.371Z,5.20
2023-04-18T08:41:57.355Z,5.30
2023-04-18T08:47:02.096Z,4.80
2023-04-18T08:52:14.064Z,4.70
2023-04-18T08:57:18.416Z,4.40
2023-04-18T09:02:23.542Z,4.70
2023-04-18T09:07:30.507Z,3.90
2023-04-18T09:12:42.462Z,4.70
2023-04-18T09:17:51.073Z,4.50
2023-04-18T09:23:00.837Z,4.70
2023-04-18T09:28:27.088Z,4.30
2023-04-18T09:33:34.538Z,4.40
2023-04-18T09:38:41.396Z,4.60
2023-04-18T09:43:45.782Z,5.00
2023-04-18T09:48:53.238Z,4.40
2023-04-18T09:53:56.529Z,4.20
2023-04-18T09:59:07.347Z,3.50
2023-04-18T10:04:12.131Z,4.00
2023-04-18T10:09:16.476Z,4.00
2023-04-18T10:14:20.122Z,3.90
2023-04-18T10:19:28.681Z,4.30
2023-04-18T10:24:57.072Z,4.80
2023-04-18T10:29:59.970Z,3.70
2023-04-18T10:35:05.472Z,4.10
2023-04-18T10:40:10.566Z,5.10
2023-04-18T10:45:26.860Z,4.30
2023-04-18T10:50:29.927Z,5.00
2023-04-18T10:55:35.872Z,4.10
2023-04-18T11:00:40.522Z,4.30
2023-04-18T11:05:46.447Z,4.00
2023-04-18T11:11:03.202Z,4.70
2023-04-18T11:21:43.385Z,3.20
2023-04-18T11:26:46.288Z,3.90
2023-04-18T11:31:55.263Z,3.40
2023-04-18T11:37:00.634Z,3.80
2023-04-18T11:42:03.920Z,4.10
2023-04-18T11:47:34.983Z,4.10
2023-04-18T11:52:40.354Z,4.30
2023-04-18T11:57:49.392Z,4.60
2023-04-18T12:02:57.437Z,4.50
2023-04-18T12:08:17.355Z,4.70
2023-04-18T12:13:26.943Z,4.80
2023-04-18T12:18:42.739Z,4.50
2023-04-18T12:30:42.725Z,4.20
2023-04-18T12:35:48.391Z,5.00
2023-04-18T12:40:52.593Z,4.60
2023-04-18T12:46:03.353Z,4.60
2023-04-18T12:51:07.188Z,4.70
2023-04-18T12:56:10.018Z,4.20
2023-04-18T13:01:18.064Z,4.60
2023-04-18T13:06:21.530Z,4.80
2023-04-18T13:11:28.519Z,4.20
2023-04-18T13:16:31.843Z,4.20
2023-04-18T13:21:35.168Z,3.80
2023-04-18T13:26:40.197Z,3.90
2023-04-18T13:31:43.243Z,5.10
2023-04-18T13:36:46.077Z,4.90
2023-04-18T13:41:50.795Z,5.40
2023-04-18T13:46:53.732Z,5.10
2023-04-18T13:51:59.367Z,5.30
2023-04-18T13:57:04.024Z,6.00
2023-04-18T14:02:08.719Z,6.40
2023-04-18T14:07:14.552Z,6.20
2023-04-18T14:12:48.665Z,7.40
2023-04-18T14:17:51.880Z,6.80
2023-04-18T14:22:54.759Z,7.50
2023-04-18T14:28:08.155Z,6.50
2023-04-18T14:33:11.114Z,5.80
2023-04-18T14:38:13.927Z,5.70
2023-04-18T14:43:16.926Z,5.80
2023-04-18T14:48:22.243Z,6.60
2023-04-18T14:53:25.398Z,7.30
2023-04-18T14:58:28.257Z,6.70
2023-04-18T15:03:31.496Z,6.30
2023-04-18T15:08:35.146Z,5.60
2023-04-18T15:13:40.452Z,4.20
2023-04-18T15:18:44.059Z,4.80
2023-04-18T15:23:46.947Z,6.60
2023-04-18T15:28:50.233Z,6.60
2023-04-18T15:33:53.033Z,7.00
2023-04-18T15:38:56.080Z,5.70
2023-04-18T15:43:58.873Z,6.30
2023-04-18T15:49:01.771Z,5.80
2023-04-18T15:54:04.700Z,5.10
2023-04-18T15:59:13.935Z,5.90
2023-04-18T16:04:19.088Z,8.20
2023-04-18T16:09:22.464Z,7.10
2023-04-18T16:14:25.376Z,6.90
2023-04-18T16:19:28.312Z,8.20
2023-04-18T16:24:31.262Z,8.20
2023-04-18T16:29:34.830Z,7.00
2023-04-18T16:34:37.675Z,6.60
2023-04-18T16:39:40.814Z,8.60
2023-04-18T16:44:47.205Z,8.00
2023-04-18T16:54:55.117Z,7.70
2023-04-18T16:59:58.722Z,7.80
2023-04-18T17:05:02.752Z,9.20
2023-04-18T17:10:08.807Z,8.10
2023-04-18T17:15:13.430Z,8.40
2023-04-18T17:20:17.909Z,8.70
2023-04-18T17:25:21.234Z,8.70
2023-04-18T17:30:24.405Z,6.90
2023-04-18T17:35:27.439Z,8.20
2023-04-18T17:40:31.322Z,7.60
2023-04-18T17:45:34.566Z,7.20
2023-04-18T17:50:42.984Z,7.90
2023-04-18T17:55:48.997Z,9.60
2023-04-18T18:00:53.037Z,8.50
2023-04-18T18:05:56.244Z,6.60
2023-04-18T18:11:01.727Z,7.20
2023-04-18T18:16:05.891Z,6.90
2023-04-18T18:21:08.798Z,7.00
2023-04-18T18:26:12.456Z,7.80
2023-04-18T18:31:15.262Z,9.50
2023-04-18T18:36:18.112Z,7.60
2023-04-18T18:41:24.594Z,8.40
2023-04-18T18:46:27.833Z,8.00
2023-04-18T18:51:31.087Z,8.10
2023-04-18T18:56:33.851Z,7.00
2023-04-18T19:01:37.086Z,6.80
2023-04-18T19:06:40.337Z,7.20
2023-04-18T19:11:43.082Z,6.20
2023-04-18T19:16:45.980Z,7.00
2023-04-18T19:21:48.772Z,6.30
2023-04-18T19:26:51.587Z,7.40
2023-04-18T19:31:54.409Z,7.30
2023-04-18T19:36:57.458Z,7.40
2023-04-18T19:42:02.000Z,6.20
2023-04-18T19:47:04.885Z,5.80
2023-04-18T19:52:07.802Z,5.60
2023-04-18T19:57:10.629Z,5.80
2023-04-18T20:02:15.143Z,5.30
2023-04-18T20:07:18.006Z,5.80
2023-04-18T20:12:21.075Z,5.40
2023-04-18T20:17:23.858Z,5.80
2023-04-18T20:22:26.920Z,6.10
2023-04-18T20:27:29.741Z,5.40
2023-04-18T20:32:33.582Z,5.60
2023-04-18T20:37:36.758Z,5.20
2023-04-18T20:42:39.913Z,5.00
2023-04-18T20:47:43.288Z,4.60
2023-04-18T20:52:49.190Z,4.90
2023-04-18T20:57:52.024Z,4.40
2023-04-18T21:02:54.980Z,5.30
2023-04-18T21:07:59.813Z,5.00
2023-04-18T21:13:02.595Z,4.60
2023-04-18T21:18:05.533Z,4.20
2023-04-18T21:23:08.413Z,4.10
2023-04-18T21:28:12.462Z,3.10
2023-04-18T21:33:15.236Z,4.20
2023-04-18T21:38:18.116Z,3.60
2023-04-18T21:43:20.983Z,3.20
2023-04-18T21:48:23.742Z,4.50
2023-04-18T21:53:26.512Z,4.10
2023-04-18T21:58:29.785Z,3.00
2023-04-18T22:03:34.224Z,3.90
2023-04-18T22:08:37.197Z,3.70
2023-04-18T22:13:40.196Z,3.60
2023-04-18T22:18:43.015Z,3.90
2023-04-18T22:23:45.944Z,3.50
2023-04-18T22:28:48.710Z,3.60
2023-04-18T22:33:51.516Z,3.40
2023-04-18T22:38:54.354Z,3.60
2023-04-18T22:43:57.081Z,3.30
2023-04-18T22:48:59.864Z,3.50
2023-04-18T22:54:02.670Z,3.90
2023-04-18T22:59:05.407Z,4.50
2023-04-18T23:04:08.454Z,3.80
2023-04-18T23:09:11.453Z,3.70
2023-04-18T23:14:17.416Z,3.40
2023-04-18T23:19:20.235Z,3.60
2023-04-18T23:24:23.115Z,3.60
2023-04-18T23:29:25.914Z,4.00
2023-04-18T23:34:28.710Z,3.90
2023-04-18T23:39:31.490Z,3.30
2023-04-18T23:44:34.294Z,3.30
2023-04-18T23:49:37.071Z,3.40
2023-04-18T23:54:39.869Z,4.50
2023-04-18T23:59:42.645Z,4.10
